Time;durP1;ratioP1;P1;durP2;ratioP2;P2;SDS_P1;SDS_P2;PMS_P1;PMS_P2;Temp;Humidity;BMP_temperature;BMP_pressure;BME280_temperature;BME280_humidity;BME280_pressure;Samples;Min_cycle;Max_cycle;Signal;HPM_P1;HPM_P2
2022/01/14 00:00:33;;;;;;;46.80;12.05;;;;;;;1.06;100.00;103597.34;2090218;28;20490;-64
2022/01/14 00:01:34;;;;;;;43.73;9.90;;;;;;;1.03;100.00;103596.38;2090237;28;20500;-64
2022/01/14 00:02:34;;;;;;;40.37;10.90;;;;;;;0.99;100.00;103588.47;2090369;28;20490;-65
2022/01/14 00:03:34;;;;;;;36.73;10.50;;;;;;;0.98;100.00;103597.88;2090918;28;20109;-65
2022/01/14 00:04:36;;;;;;;25.80;10.50;;;;;;;0.96;100.00;103594.34;2090952;28;20049;-64
2022/01/14 00:05:37;;;;;;;25.35;9.70;;;;;;;0.94;100.00;103601.13;2090855;28;20040;-64
2022/01/14 00:06:37;;;;;;;33.47;10.43;;;;;;;0.94;100.00;103595.09;2090797;28;20501;-65
2022/01/14 00:07:38;;;;;;;32.70;9.90;;;;;;;0.96;100.00;103599.50;2090886;28;20025;-65
2022/01/14 00:08:38;;;;;;;29.13;10.20;;;;;;;0.97;100.00;103600.38;2090931;28;20045;-65
2022/01/14 00:09:39;;;;;;;35.10;10.27;;;;;;;0.96;100.00;103604.63;2090866;28;20033;-65
2022/01/14 00:10:41;;;;;;;26.33;10.32;;;;;;;0.98;100.00;103607.28;2090887;28;20148;-65
2022/01/14 00:11:47;;;;;;;30.88;10.32;;;;;;;0.99;100.00;103604.78;2090819;28;20445;-65
2022/01/14 00:12:53;;;;;;;30.23;10.00;;;;;;;1.00;100.00;103600.53;2090112;28;20036;-65
2022/01/14 00:14:09;;;;;;;36.13;11.15;;;;;;;1.00;100.00;103605.66;2090225;28;20017;-65
2022/01/14 00:15:26;;;;;;;29.58;9.32;;;;;;;0.97;100.00;103590.09;2090865;28;20427;-66
2022/01/14 00:16:26;;;;;;;52.25;10.73;;;;;;;0.93;100.00;103589.09;2090865;28;20037;-65
2022/01/14 00:17:27;;;;;;;39.87;9.87;;;;;;;0.90;100.00;103594.09;2090830;28;20021;-65
2022/01/14 00:18:27;;;;;;;47.40;10.85;;;;;;;0.88;100.00;103588.91;2090878;28;20028;-65
2022/01/14 00:19:27;;;;;;;39.50;9.70;;;;;;;0.86;100.00;103587.94;2090074;28;20025;-65
2022/01/14 00:20:28;;;;;;;33.57;10.10;;;;;;;0.84;100.00;103589.59;2090201;28;20588;-65
2022/01/14 00:21:30;;;;;;;36.95;10.50;;;;;;;0.85;100.00;103590.44;2090708;28;20036;-64
2022/01/14 00:22:30;;;;;;;45.72;10.90;;;;;;;0.84;100.00;103589.59;2090928;28;20032;-65
2022/01/14 00:23:36;;;;;;;45.95;11.57;;;;;;;0.84;100.00;103584.44;2090210;28;20371;-65
2022/01/14 00:32:45;;;;;;;39.97;10.00;;;;;;;0.81;100.00;103573.13;2090676;28;20033;-66
2022/01/14 00:33:45;;;;;;;36.78;9.98;;;;;;;0.81;100.00;103571.44;2090623;28;20066;-64
2022/01/14 00:34:46;;;;;;;28.43;10.50;;;;;;;0.81;100.00;103568.00;2090704;28;20410;-65
2022/01/14 00:35:46;;;;;;;35.95;10.25;;;;;;;0.81;100.00;103574.03;2089903;28;20013;-64
2022/01/14 00:36:46;;;;;;;27.90;10.70;;;;;;;0.80;100.00;103568.81;2090028;28;20458;-65
2022/01/14 00:37:47;;;;;;;40.03;10.37;;;;;;;0.81;100.00;103568.00;2090420;28;20110;-65
2022/01/14 00:38:47;;;;;;;29.73;10.37;;;;;;;0.83;100.00;103571.53;2090608;28;20420;-65
2022/01/14 00:39:47;;;;;;;36.43;9.10;;;;;;;0.83;100.00;103577.56;2090003;28;20035;-64
2022/01/14 00:40:48;;;;;;;39.17;10.73;;;;;;;0.83;100.00;103572.41;2090078;28;20528;-65
2022/01/14 00:41:48;;;;;;;33.77;10.10;;;;;;;0.81;100.00;103573.13;2090646;28;20482;-64
2022/01/14 00:42:49;;;;;;;42.13;10.20;;;;;;;0.79;100.00;103575.66;2090706;28;20029;-65
2022/01/14 00:43:54;;;;;;;35.80;9.50;;;;;;;0.79;100.00;103570.53;2090538;28;20033;-64
2022/01/14 00:44:55;;;;;;;35.28;10.77;;;;;;;0.79;100.00;103567.06;2090655;28;20481;-66
2022/01/14 00:45:55;;;;;;;36.50;10.77;;;;;;;0.80;100.00;103566.25;2090718;28;20025;-64
2022/01/14 00:46:56;;;;;;;38.13;10.00;;;;;;;0.82;100.00;103567.19;2090669;28;20052;-64
2022/01/14 00:47:58;;;;;;;32.70;10.80;;;;;;;0.82;100.00;103562.06;2090621;28;20017;-64
2022/01/14 00:48:58;;;;;;;30.80;10.88;;;;;;;0.84;100.00;103558.72;2090475;28;20503;-66
2022/01/14 00:49:58;;;;;;;38.93;10.93;;;;;;;0.84;100.00;103557.84;2090652;28;20110;-64
2022/01/14 00:50:59;;;;;;;33.00;10.83;;;;;;;0.81;100.00;103552.56;2090607;28;20021;-64
2022/01/14 00:51:59;;;;;;;27.33;10.37;;;;;;;0.80;100.00;103555.94;2090558;28;20473;-65
2022/01/14 00:53:00;;;;;;;31.03;9.90;;;;;;;0.79;100.00;103555.09;2090567;28;20052;-64
2022/01/14 00:54:02;;;;;;;39.33;9.77;;;;;;;0.75;100.00;103548.94;2090515;28;20025;-64
2022/01/14 00:55:04;;;;;;;36.33;9.38;;;;;;;0.71;100.00;103544.47;2090543;28;20094;-64
2022/01/14 00:56:09;;;;;;;45.78;10.15;;;;;;;0.70;100.00;103544.41;2089734;28;20036;-64
2022/01/14 00:59:28;;;;;;;43.17;10.60;;;;;;;0.66;100.00;103533.13;2090505;28;20041;-64
2022/01/14 01:00:32;;;;;;;33.22;8.23;;;;;;;0.63;100.00;103532.97;2090518;28;20116;-66
2022/01/14 01:01:32;;;;;;;19.92;7.80;;;;;;;0.64;100.00;103530.47;2090394;28;20100;-64
2022/01/14 01:02:32;;;;;;;31.13;9.73;;;;;;;0.65;100.00;103526.19;2090533;28;20111;-63
2022/01/14 01:03:34;;;;;;;33.53;10.03;;;;;;;0.64;100.00;103525.34;2090473;28;20021;-64
2022/01/14 01:04:37;;;;;;;40.38;10.30;;;;;;;0.67;100.00;103527.16;2090468;28;20020;-64
2022/01/14 01:05:38;;;;;;;34.60;10.07;;;;;;;0.67;100.00;103529.72;2090382;28;20025;-64
2022/01/14 01:06:39;;;;;;;29.30;10.33;;;;;;;0.67;100.00;103524.59;2090428;28;20489;-65
2022/01/14 01:07:40;;;;;;;;;;;;;;;0.68;100.00;103528.91;2090081;28;20071;-64
2022/01/14 01:08:42;;;;;;;31.45;9.95;;;;;;;0.68;100.00;103528.91;2092638;28;19951;-64
2022/01/14 01:09:48;;;;;;;37.20;9.52;;;;;;;0.67;100.00;103527.16;2090311;28;20543;-64
2022/01/14 01:10:50;;;;;;;31.42;10.43;;;;;;;0.67;100.00;103524.59;2090366;28;20413;-65
2022/01/14 01:12:13;;;;;;;26.42;10.10;;;;;;;0.67;100.00;103516.88;2090321;28;20033;-64
2022/01/14 01:13:28;;;;;;;38.92;9.23;;;;;;;0.66;100.00;103522.84;2090388;28;20039;-63
2022/01/14 01:14:39;;;;;;;29.00;9.35;;;;;;;0.66;100.00;103527.97;2089708;28;20029;-64
2022/01/14 01:15:39;;;;;;;35.83;10.25;;;;;;;0.66;100.00;103522.84;2089885;28;20035;-64
2022/01/14 01:16:40;;;;;;;29.40;9.10;;;;;;;0.65;100.00;103518.50;2089788;28;20032;-65
2022/01/14 01:17:40;;;;;;;25.52;9.43;;;;;;;0.65;100.00;103533.91;2081424;28;20475;-65
2022/01/14 01:18:40;;;;;;;34.10;9.32;;;;;;;0.61;100.00;103520.06;2089797;28;20067;-65
2022/01/14 01:19:41;;;;;;;30.97;10.77;;;;;;;0.62;100.00;103531.25;2089625;28;20032;-64
2022/01/14 01:20:42;;;;;;;28.70;9.07;;;;;;;0.63;100.00;103522.72;2089785;28;20024;-65
2022/01/14 01:21:42;;;;;;;27.07;10.00;;;;;;;0.63;100.00;103522.72;2090294;28;20358;-64
2022/01/14 01:22:42;;;;;;;24.07;8.43;;;;;;;0.63;100.00;103517.56;2090372;28;20031;-65
2022/01/14 01:23:43;;;;;;;42.57;9.47;;;;;;;0.61;100.00;103524.31;2090333;28;20033;-65
2022/01/14 01:24:43;;;;;;;27.07;9.80;;;;;;;0.60;100.00;103520.00;2090368;28;20528;-65
2022/01/14 01:25:49;;;;;;;32.57;10.43;;;;;;;0.59;100.00;103521.72;2090337;28;20398;-65
2022/01/14 01:26:51;;;;;;;23.30;9.88;;;;;;;0.62;100.00;103516.69;2090142;28;20090;-65
2022/01/14 01:27:53;;;;;;;31.15;8.43;;;;;;;0.66;100.00;103521.94;2089603;28;20028;-65
2022/01/14 01:31:36;;;;;;;33.58;9.52;;;;;;;0.67;100.00;103514.31;2088458;28;19915;-65
2022/01/14 01:32:37;;;;;;;28.33;9.45;;;;;;;0.68;100.00;103516.06;2090161;28;20033;-64
2022/01/14 01:33:37;;;;;;;;;;;;;;;0.67;100.00;103516.88;2090645;28;20128;-64
2022/01/14 01:34:38;;;;;;;39.38;10.02;;;;;;;0.67;100.00;103518.56;2090202;28;20354;-64
2022/01/14 01:35:38;;;;;;;48.93;11.10;;;;;;;0.63;100.00;103515.00;2089972;28;20075;-64
2022/01/14 01:36:40;;;;;;;29.80;9.07;;;;;;;0.59;100.00;103518.25;2089544;28;20561;-64
2022/01/14 01:37:41;;;;;;;32.00;9.18;;;;;;;0.58;100.00;103519.06;2089338;28;20048;-65
2022/01/14 01:38:41;;;;;;;33.58;8.73;;;;;;;0.57;100.00;103513.03;2090117;28;20462;-66
2022/01/14 01:39:42;;;;;;;29.80;8.93;;;;;;;0.59;100.00;103515.69;2090102;28;20040;-64
2022/01/14 01:40:47;;;;;;;52.80;10.90;;;;;;;0.60;100.00;103518.31;2090137;28;20052;-65
2022/01/14 01:41:50;;;;;;;39.03;10.27;;;;;;;0.60;100.00;103518.31;2090036;28;20760;-64
2022/01/14 01:42:52;;;;;;;47.80;9.98;;;;;;;0.62;100.00;103515.81;2090090;28;20029;-64
2022/01/14 01:43:54;;;;;;;32.75;9.77;;;;;;;0.62;100.00;103519.25;2090037;28;20064;-65
2022/01/14 01:44:54;;;;;;;39.63;11.00;;;;;;;0.61;100.00;103507.22;2089450;28;20029;-64
2022/01/14 01:45:55;;;;;;;38.97;9.33;;;;;;;0.60;100.00;103522.56;2089549;28;20393;-64
2022/01/14 01:46:57;;;;;;;35.60;10.65;;;;;;;0.58;100.00;103508.78;2090166;28;20721;-64
2022/01/14 01:47:57;;;;;;;44.60;10.95;;;;;;;0.55;100.00;103508.66;2090173;28;20528;-64
2022/01/14 01:48:57;;;;;;;41.60;9.43;;;;;;;0.53;100.00;103507.69;2090112;28;20135;-67
2022/01/14 01:50:06;;;;;;;42.43;10.07;;;;;;;0.53;100.00;103499.97;2090127;28;20021;-63
2022/01/14 01:51:07;;;;;;;47.58;9.70;;;;;;;0.50;100.00;103501.63;2090042;28;20107;-64
2022/01/14 01:52:07;;;;;;;41.17;10.20;;;;;;;0.49;100.00;103505.03;2089524;28;20438;-65
2022/01/14 01:53:08;;;;;;;59.13;12.68;;;;;;;0.49;100.00;103502.44;2089600;28;20021;-64
2022/01/14 01:54:08;;;;;;;56.07;11.43;;;;;;;0.47;100.00;103501.50;2090210;28;20129;-65
2022/01/14 01:55:09;;;;;;;58.03;10.97;;;;;;;0.47;100.00;103503.16;2090151;28;20104;-64
2022/01/14 01:56:09;;;;;;;46.20;9.52;;;;;;;0.45;100.00;103500.53;2089215;28;20092;-65
2022/01/14 01:57:10;;;;;;;56.67;10.90;;;;;;;0.45;100.00;103497.97;2089556;28;20053;-65
2022/01/14 01:58:10;;;;;;;52.53;10.27;;;;;;;0.45;100.00;103491.97;2090055;28;20086;-65
2022/01/14 01:59:10;;;;;;;48.93;9.60;;;;;;;0.45;100.00;103500.53;2090108;28;20021;-65
2022/01/14 02:00:14;;;;;;;53.43;10.43;;;;;;;0.42;100.00;103497.84;2090082;28;20036;-65
2022/01/14 02:01:14;;;;;;;46.60;9.60;;;;;;;0.43;100.00;103501.28;2090002;28;20061;-65
2022/01/14 02:02:14;;;;;;;41.20;10.07;;;;;;;0.44;100.00;103500.50;2089917;28;20448;-65
2022/01/14 02:03:15;;;;;;;45.03;9.77;;;;;;;0.43;100.00;103498.72;2089985;28;20053;-65
2022/01/14 02:04:15;;;;;;;42.60;8.83;;;;;;;0.45;100.00;103510.81;2089995;28;20086;-65
2022/01/14 02:05:16;;;;;;;29.43;9.33;;;;;;;0.45;100.00;103508.25;2090006;28;20078;-64
2022/01/14 02:06:19;;;;;;;39.40;7.50;;;;;;;0.43;100.00;103504.75;2089995;28;20020;-65
2022/01/14 02:07:19;;;;;;;30.42;8.38;;;;;;;0.45;100.00;103507.38;2089300;28;20505;-66
2022/01/14 02:08:20;;;;;;;28.57;7.80;;;;;;;0.43;100.00;103504.75;2089417;28;20048;-64
2022/01/14 02:09:21;;;;;;;32.20;8.63;;;;;;;0.39;100.00;103505.44;2090001;28;20044;-64
2022/01/14 02:10:22;;;;;;;35.05;8.05;;;;;;;0.40;100.00;103504.59;2089927;28;20458;-64
2022/01/14 02:11:23;;;;;;;35.15;7.88;;;;;;;0.38;100.00;103506.25;2089951;28;20033;-64
2022/01/14 02:12:23;;;;;;;50.37;9.07;;;;;;;0.36;100.00;103505.28;2090072;28;20501;-65
2022/01/14 02:13:23;;;;;;;36.80;8.83;;;;;;;0.36;100.00;103497.56;2089915;28;20060;-65
2022/01/14 02:15:31;;;;;;;41.08;7.40;;;;;;;0.30;100.00;103497.34;2090057;28;20129;-65
2022/01/14 02:16:47;;;;;;;34.35;9.02;;;;;;;0.28;100.00;103493.81;2090037;28;20091;-65
2022/01/14 02:22:14;;;;;;;31.05;8.23;;;;;;;0.24;100.00;103493.66;2056523;28;20096;-65
2022/01/14 02:23:16;;;;;;;33.60;8.38;;;;;;;0.24;100.00;103487.66;2079189;28;20061;-65
2022/01/14 02:25:30;;;;;;;40.92;8.68;;;;;;;0.25;100.00;103490.28;2088993;28;20032;-66
2022/01/14 02:26:30;;;;;;;35.63;8.13;;;;;;;0.24;100.00;103493.66;2089442;28;20037;-65
2022/01/14 02:27:30;;;;;;;37.70;8.20;;;;;;;0.23;100.00;103491.03;2089889;28;20068;-65
2022/01/14 02:28:31;;;;;;;41.53;7.53;;;;;;;0.22;100.00;103495.31;2089281;28;20032;-65
2022/01/14 02:29:32;;;;;;;34.58;7.97;;;;;;;0.21;100.00;103487.53;2089342;28;20033;-65
2022/01/14 02:30:34;;;;;;;43.88;7.85;;;;;;;0.20;100.00;103484.06;2089854;28;20025;-65
2022/01/14 02:31:34;;;;;;;37.10;7.28;;;;;;;0.18;100.00;103478.00;2089866;28;20032;-65
2022/01/14 02:32:34;;;;;;;34.07;7.53;;;;;;;0.19;100.00;103484.88;2089952;28;20028;-65
2022/01/14 02:33:35;;;;;;;26.83;7.43;;;;;;;0.19;100.00;103479.75;2090011;28;20398;-65
2022/01/14 02:34:38;;;;;;;51.10;9.47;;;;;;;0.20;100.00;103476.34;2090067;28;20322;-65
2022/01/14 02:35:40;;;;;;;27.10;7.82;;;;;;;0.19;100.00;103469.47;2089928;28;20029;-65
2022/01/14 02:36:42;;;;;;;30.85;8.77;;;;;;;0.16;100.00;103474.47;2089225;28;20025;-65
2022/01/14 02:37:43;;;;;;;41.50;8.15;;;;;;;0.16;100.00;103468.44;2089167;28;20044;-65
2022/01/14 02:38:45;;;;;;;26.65;8.70;;;;;;;0.16;100.00;103474.47;2089929;28;20500;-65
2022/01/14 02:39:45;;;;;;;32.30;8.18;;;;;;;0.16;100.00;103476.16;2089832;28;20392;-65
2022/01/14 02:40:47;;;;;;;39.10;8.43;;;;;;;0.17;100.00;103471.09;2089908;28;20029;-65
2022/01/14 02:41:51;;;;;;;43.45;8.88;;;;;;;0.16;100.00;103468.44;2089191;28;20051;-65
2022/01/14 02:42:51;;;;;;;41.53;9.07;;;;;;;0.13;100.00;103474.34;2081371;28;20131;-65
2022/01/14 02:43:52;;;;;;;49.63;9.05;;;;;;;0.14;100.00;103470.97;2089299;28;20029;-65
2022/01/14 02:44:59;;;;;;;37.20;8.40;;;;;;;0.14;100.00;103473.53;2089873;28;20079;-65
2022/01/14 02:46:00;;;;;;;27.08;7.15;;;;;;;0.13;100.00;103474.34;2089931;28;20028;-65
2022/01/14 02:47:05;;;;;;;42.83;7.73;;;;;;;0.12;100.00;103477.72;2090132;28;20032;-65
2022/01/14 02:48:06;;;;;;;47.40;7.72;;;;;;;0.11;100.00;103475.97;2091514;28;20684;-64
2022/01/14 02:49:06;;;;;;;37.28;8.93;;;;;;;0.13;100.00;103479.47;2091547;28;20020;-64
2022/01/14 02:50:09;;;;;;;39.67;7.63;;;;;;;0.14;100.00;103476.13;2091517;28;20029;-64
2022/01/14 02:51:14;;;;;;;34.80;8.75;;;;;;;0.14;100.00;103477.78;2090737;28;20321;-64
2022/01/14 02:52:14;;;;;;;46.85;7.78;;;;;;;0.15;100.00;103472.72;2090856;28;20025;-65
2022/01/14 02:53:26;;;;;;;35.47;7.63;;;;;;;0.14;100.00;103473.53;2091462;28;20025;-64
2022/01/14 02:54:32;;;;;;;33.88;7.93;;;;;;;0.13;100.00;103458.94;2091504;28;20025;-65
2022/01/14 02:55:34;;;;;;;44.40;7.78;;;;;;;0.13;100.00;103464.06;2091423;28;20027;-65
2022/01/14 02:56:35;;;;;;;37.42;7.25;;;;;;;0.14;100.00;103460.69;2091357;28;20021;-65
2022/01/14 02:57:35;;;;;;;33.42;8.52;;;;;;;0.17;100.00;103462.53;2091415;28;20055;-64
2022/01/14 02:58:38;;;;;;;23.20;6.97;;;;;;;0.14;100.00;103463.28;2091580;28;20509;-64
2022/01/14 02:59:42;;;;;;;36.67;7.13;;;;;;;0.11;100.00;103461.41;2091442;28;20417;-65
2022/01/14 03:00:42;;;;;;;38.95;7.43;;;;;;;0.09;100.00;103464.75;2090715;28;20025;-63
2022/01/14 03:01:45;;;;;;;27.15;7.18;;;;;;;0.08;100.00;103468.13;2090786;28;20025;-64
2022/01/14 03:02:49;;;;;;;33.35;7.18;;;;;;;0.07;100.00;103466.38;2091296;28;20086;-64
2022/01/14 03:03:55;;;;;;;25.70;6.55;;;;;;;0.06;100.00;103462.03;2091359;28;20025;-64
2022/01/14 03:04:58;;;;;;;35.40;7.43;;;;;;;0.03;100.00;103465.34;2091335;28;20033;-64
2022/01/14 03:06:00;;;;;;;30.70;7.43;;;;;;;0.05;100.00;103462.84;2091304;28;20044;-64
2022/01/14 03:07:00;;;;;;;39.75;8.05;;;;;;;0.02;100.00;103466.16;2091331;28;20017;-64
2022/01/14 03:08:01;;;;;;;24.43;7.33;;;;;;;0.03;100.00;103467.91;2091333;28;20099;-63
2022/01/14 03:09:02;;;;;;;42.17;7.67;;;;;;;0.01;100.00;103468.66;2091326;28;20549;-64
2022/01/14 03:10:03;;;;;;;30.67;7.40;;;;;;;0.02;100.00;103460.13;2091275;28;20061;-64
2022/01/14 03:11:07;;;;;;;;;;;;;;;0.04;100.00;103463.66;2091668;28;20040;-64
2022/01/14 03:12:09;;;;;;;42.83;7.63;;;;;;;0.01;100.00;103460.97;2090517;28;19913;-65
2022/01/14 03:13:09;;;;;;;;;;;;;;;-0.02;100.00;103459.13;2091061;28;20020;-64
2022/01/14 03:14:10;;;;;;;37.15;7.15;;;;;;;-0.05;100.00;103459.88;2091326;28;19908;-63
2022/01/14 03:15:12;;;;;;;26.15;7.10;;;;;;;-0.03;100.00;103458.25;2091272;28;20035;-64
2022/01/14 03:16:14;;;;;;;28.85;6.10;;;;;;;-0.05;100.00;103459.88;2091318;28;20035;-67
2022/01/14 03:17:14;;;;;;;43.72;7.85;;;;;;;-0.07;100.00;103464.06;2091331;28;20494;-65
2022/01/14 03:18:22;;;;;;;42.10;7.23;;;;;;;-0.08;100.00;103464.88;2091206;28;20028;-65
2022/01/14 03:19:25;;;;;;;46.60;8.07;;;;;;;-0.08;100.00;103464.88;2091186;28;20496;-64
2022/01/14 03:20:49;;;;;;;35.10;7.60;;;;;;;-0.08;100.00;103462.31;2091172;28;20032;-64
2022/01/14 03:21:46;;;;;;;31.05;7.30;;;;;;;-0.08;100.00;103459.75;2090752;28;20028;-64
2022/01/14 03:23:02;;;;;;;36.55;8.20;;;;;;;-0.06;100.00;103465.84;2091214;28;20025;-64
2022/01/14 03:24:15;;;;;;;25.30;6.75;;;;;;;-0.02;100.00;103454.91;2090393;28;20431;-64
2022/01/14 03:26:34;;;;;;;28.83;7.10;;;;;;;0.03;100.00;103464.50;2090686;28;20024;-64
2022/01/14 03:27:34;;;;;;;35.83;8.07;;;;;;;0.03;100.00;103464.50;2091164;28;20482;-65
2022/01/14 03:28:34;;;;;;;33.77;7.57;;;;;;;0.03;100.00;103460.22;2091235;28;20033;-64
2022/01/14 03:29:35;;;;;;;33.33;7.50;;;;;;;0.03;100.00;103460.22;2091268;28;20029;-64
2022/01/14 03:30:35;;;;;;;32.22;7.38;;;;;;;0.04;100.00;103463.66;2091134;28;20104;-65
2022/01/14 03:31:36;;;;;;;35.63;6.57;;;;;;;0.02;100.00;103462.72;2091272;28;20115;-65
2022/01/14 03:32:36;;;;;;;32.53;7.87;;;;;;;-0.02;100.00;103466.84;2091185;28;20017;-64
2022/01/14 03:33:37;;;;;;;32.00;7.47;;;;;;;-0.06;100.00;103465.84;2091068;28;20025;-64
2022/01/14 03:34:37;;;;;;;73.70;10.82;;;;;;;-0.08;100.00;103475.16;2091222;28;20032;-65
2022/01/14 03:35:38;;;;;;;59.47;9.20;;;;;;;-0.08;100.00;103469.13;2091093;28;20029;-65
2022/01/14 03:36:38;;;;;;;27.70;6.40;;;;;;;-0.07;100.00;103471.75;2091212;28;20034;-66
2022/01/14 03:37:39;;;;;;;52.73;8.10;;;;;;;-0.09;100.00;103472.50;2090464;28;20017;-65
2022/01/14 03:38:40;;;;;;;54.13;9.27;;;;;;;-0.08;100.00;103472.59;2090560;28;20027;-65
2022/01/14 03:39:40;;;;;;;58.27;8.60;;;;;;;-0.08;100.00;103469.13;2090562;28;20033;-66
2022/01/14 03:40:41;;;;;;;41.50;8.47;;;;;;;-0.08;100.00;103469.13;2091118;28;20438;-65
2022/01/14 03:41:41;;;;;;;58.33;8.37;;;;;;;-0.11;100.00;103464.75;2090435;28;20130;-65
2022/01/14 03:42:41;;;;;;;69.20;9.37;;;;;;;-0.12;100.00;103465.56;2090522;28;20119;-65
2022/01/14 03:43:42;;;;;;;49.73;7.63;;;;;;;-0.13;100.00;103461.25;2090458;28;20032;-65
2022/01/14 03:44:42;;;;;;;63.88;9.35;;;;;;;-0.12;100.00;103460.41;2090489;28;20036;-65
2022/01/14 03:45:43;;;;;;;58.53;8.47;;;;;;;-0.13;100.00;103458.69;2091189;28;20021;-65
2022/01/14 03:46:44;;;;;;;52.95;8.65;;;;;;;-0.13;100.00;103461.25;2091136;28;20025;-66
2022/01/14 03:47:44;;;;;;;44.20;9.75;;;;;;;-0.11;100.00;103449.34;2091134;28;20032;-65
2022/01/14 03:48:44;;;;;;;48.10;9.20;;;;;;;-0.13;100.00;103450.97;2090363;28;20116;-65
2022/01/14 03:49:45;;;;;;;55.37;8.13;;;;;;;-0.13;100.00;103456.09;2090398;28;20033;-65
2022/01/14 03:50:45;;;;;;;59.57;8.67;;;;;;;-0.11;100.00;103448.47;2090922;28;20033;-66
2022/01/14 03:51:45;;;;;;;49.13;8.60;;;;;;;-0.09;100.00;103455.44;2091005;28;20033;-65
2022/01/14 03:52:45;;;;;;;64.20;8.83;;;;;;;-0.10;100.00;103455.34;2090299;28;20037;-65
2022/01/14 03:53:47;;;;;;;50.50;9.00;;;;;;;-0.08;100.00;103458.84;2090377;28;20028;-65
2022/01/14 03:54:49;;;;;;;54.53;8.93;;;;;;;-0.05;100.00;103459.88;2090438;28;20033;-65
2022/01/14 03:55:49;;;;;;;58.67;8.02;;;;;;;-0.08;100.00;103454.59;2090990;28;20023;-65
2022/01/14 03:56:50;;;;;;;62.53;9.27;;;;;;;-0.09;100.00;103458.00;2090953;28;20059;-65
2022/01/14 03:57:50;;;;;;;64.70;8.90;;;;;;;-0.09;100.00;103458.00;2090163;28;20067;-65
2022/01/14 03:58:50;;;;;;;53.50;9.32;;;;;;;-0.07;100.00;103460.63;2090326;28;20143;-65
2022/01/14 03:59:50;;;;;;;40.57;8.13;;;;;;;-0.06;100.00;103457.25;2090968;28;20025;-65
2022/01/14 04:00:51;;;;;;;53.20;7.87;;;;;;;-0.06;100.00;103465.84;2090952;28;20555;-66
2022/01/14 04:01:51;;;;;;;48.67;9.07;;;;;;;-0.07;100.00;103458.94;2090970;28;20486;-66
2022/01/14 04:02:51;;;;;;;35.80;7.87;;;;;;;-0.05;100.00;103452.19;2090939;28;20052;-66
2022/01/14 04:03:52;;;;;;;45.57;8.43;;;;;;;-0.04;100.00;103456.50;2090892;28;20013;-66
2022/01/14 04:04:52;;;;;;;56.87;9.20;;;;;;;-0.05;100.00;103459.88;2090869;28;20359;-65
2022/01/14 04:05:52;;;;;;;64.17;9.53;;;;;;;-0.05;100.00;103453.88;2090220;28;20091;-65
2022/01/14 04:06:52;;;;;;;62.97;9.60;;;;;;;-0.05;100.00;103459.00;2090270;28;20021;-65
2022/01/14 04:07:53;;;;;;;47.93;9.03;;;;;;;-0.05;100.00;103459.88;2090854;28;20029;-65
2022/01/14 04:08:53;;;;;;;29.23;6.07;;;;;;;-0.05;100.00;103465.03;2090878;28;20559;-65
2022/01/14 04:09:53;;;;;;;45.80;8.13;;;;;;;-0.06;100.00;103463.28;2090794;28;20021;-65
2022/01/14 04:10:56;;;;;;;54.33;8.13;;;;;;;-0.06;100.00;103458.13;2090824;28;20529;-65
2022/01/14 04:12:00;;;;;;;44.42;7.10;;;;;;;-0.06;100.00;103468.41;2090886;28;20033;-65
2022/01/14 04:13:05;;;;;;;51.00;7.80;;;;;;;-0.07;100.00;103461.50;2090808;28;20013;-64
2022/01/14 04:15:37;;;;;;;52.38;8.40;;;;;;;-0.11;100.00;103462.16;2081648;28;20487;-64
2022/01/14 04:16:37;;;;;;;54.10;8.32;;;;;;;-0.13;100.00;103456.09;2090818;28;20035;-64
2022/01/14 04:17:37;;;;;;;67.33;9.10;;;;;;;-0.15;100.00;103457.72;2090830;28;20028;-64
2022/01/14 04:18:38;;;;;;;48.33;7.93;;;;;;;-0.14;100.00;103460.34;2090211;28;20036;-65
2022/01/14 04:19:38;;;;;;;48.83;8.05;;;;;;;-0.09;100.00;103457.09;2090195;28;20111;-65
2022/01/14 04:20:40;;;;;;;52.03;9.50;;;;;;;-0.08;100.00;103457.19;2090798;28;20059;-65
2022/01/14 04:21:40;;;;;;;40.97;8.20;;;;;;;-0.07;100.00;103448.66;2090738;28;20017;-64
2022/01/14 04:22:40;;;;;;;41.33;8.27;;;;;;;-0.07;100.00;103451.22;2090772;28;20048;-64
2022/01/14 04:23:40;;;;;;;55.70;8.73;;;;;;;-0.05;100.00;103451.28;2090731;28;20217;-64
2022/01/14 04:24:41;;;;;;;48.57;8.37;;;;;;;-0.01;100.00;103445.47;2090790;28;20720;-64
2022/01/14 04:25:42;;;;;;;46.47;8.40;;;;;;;0.01;100.00;103448.13;2090718;28;20493;-64
2022/01/14 04:26:42;;;;;;;42.15;8.05;;;;;;;0.01;100.00;103449.00;2090644;28;20502;-64
2022/01/14 04:27:42;;;;;;;61.03;8.77;;;;;;;-0.02;100.00;103446.31;2090766;28;20496;-64
2022/01/14 04:28:43;;;;;;;50.43;8.87;;;;;;;-0.05;100.00;103449.63;2090904;28;20090;-64
2022/01/14 04:29:43;;;;;;;44.05;8.45;;;;;;;-0.03;100.00;103442.84;2090984;28;20135;-64
2022/01/14 04:30:43;;;;;;;49.00;8.10;;;;;;;0.00;100.00;103442.13;2090640;28;20033;-64
2022/01/14 04:31:43;;;;;;;40.93;8.63;;;;;;;-0.06;100.00;103453.00;2090683;28;20483;-65
2022/01/14 04:32:44;;;;;;;41.17;8.20;;;;;;;-0.07;100.00;103445.22;2090705;28;20074;-65
2022/01/14 04:33:44;;;;;;;39.10;7.83;;;;;;;-0.10;100.00;103445.94;2090685;28;20079;-66
2022/01/14 04:34:44;;;;;;;74.67;9.63;;;;;;;-0.09;100.00;103447.72;2090734;28;20051;-65
2022/01/14 04:35:44;;;;;;;30.87;7.03;;;;;;;-0.10;100.00;103445.94;2090708;28;20104;-65
2022/01/14 04:36:45;;;;;;;73.27;9.83;;;;;;;-0.11;100.00;103451.03;2089903;28;20118;-64
2022/01/14 04:37:45;;;;;;;16.20;6.03;;;;;;;-0.14;100.00;103449.19;2090020;28;20040;-65
2022/01/14 04:38:45;;;;;;;50.53;7.70;;;;;;;-0.15;100.00;103439.75;2090657;28;20128;-66
2022/01/14 04:39:45;;;;;;;87.33;9.40;;;;;;;-0.16;100.00;103445.69;2090638;28;20096;-65
2022/01/14 04:40:46;;;;;;;72.27;9.10;;;;;;;-0.19;100.00;103441.31;2090645;28;20037;-65
2022/01/14 04:41:46;;;;;;;84.70;9.80;;;;;;;-0.20;100.00;103448.94;2089972;28;20029;-65
2022/01/14 04:42:48;;;;;;;39.03;8.27;;;;;;;-0.20;100.00;103438.66;2090097;28;20154;-65
2022/01/14 04:43:48;;;;;;;55.25;8.57;;;;;;;-0.20;100.00;103438.66;2090614;28;20029;-65
2022/01/14 04:44:52;;;;;;;44.73;7.47;;;;;;;-0.21;100.00;103437.78;2089904;28;20103;-65
2022/01/14 04:47:19;;;;;;;53.97;7.25;;;;;;;-0.18;100.00;103426.75;2090789;28;20436;-65
2022/01/14 04:48:16;;;;;;;72.15;8.38;;;;;;;-0.18;100.00;103426.75;2090288;28;20105;-65
2022/01/14 04:49:16;;;;;;;43.50;7.50;;;;;;;-0.18;100.00;103427.66;2090575;28;20024;-65
2022/01/14 04:50:19;;;;;;;58.13;8.70;;;;;;;-0.17;100.00;103423.41;2090553;28;20469;-65
2022/01/14 04:51:22;;;;;;;44.45;8.73;;;;;;;-0.17;100.00;103425.97;2090692;28;20029;-65
2022/01/14 04:52:23;;;;;;;63.92;8.48;;;;;;;-0.22;100.00;103423.19;2090596;28;20112;-65
2022/01/14 04:53:24;;;;;;;46.40;7.85;;;;;;;-0.23;100.00;103424.00;2090498;28;20029;-65
2022/01/14 04:54:24;;;;;;;56.22;8.18;;;;;;;-0.22;100.00;103419.75;2089865;28;20052;-65
2022/01/14 04:55:26;;;;;;;44.33;6.93;;;;;;;-0.21;100.00;103421.53;2089976;28;20075;-65
2022/01/14 04:56:26;;;;;;;40.65;8.57;;;;;;;-0.21;100.00;103426.66;2090575;28;20037;-65
2022/01/14 04:57:26;;;;;;;56.90;8.73;;;;;;;-0.23;100.00;103418.88;2090518;28;20359;-65
2022/01/14 04:58:28;;;;;;;61.70;8.77;;;;;;;-0.20;100.00;103418.13;2090442;28;20025;-65
2022/01/14 04:59:28;;;;;;;34.90;7.03;;;;;;;-0.19;100.00;103414.75;2090430;28;20032;-65
2022/01/14 05:00:29;;;;;;;39.65;7.57;;;;;;;-0.19;100.00;103419.88;2090549;28;20055;-65
2022/01/14 05:01:29;;;;;;;45.47;8.70;;;;;;;-0.19;100.00;103409.63;2090393;28;20366;-65
2022/01/14 05:02:30;;;;;;;39.05;7.55;;;;;;;-0.18;100.00;103419.94;2090520;28;20021;-65
2022/01/14 05:03:30;;;;;;;41.47;7.60;;;;;;;-0.15;100.00;103411.50;2090537;28;20021;-66
2022/01/14 05:04:31;;;;;;;35.95;7.88;;;;;;;-0.17;100.00;103413.16;2090494;28;20052;-66
2022/01/14 05:05:34;;;;;;;45.17;7.43;;;;;;;-0.16;100.00;103407.19;2089858;28;20048;-65
2022/01/14 05:06:35;;;;;;;29.25;7.32;;;;;;;-0.17;100.00;103403.72;2089871;28;20021;-65